Weather Station Data

Station Data Captured at Five Minute Intervals Since Midnight Local Time


Date Time Temp. RH % Dew Pt. Wind Speed Wind Dir. Peak Wind Wind Chill Pressure Precip. Solar W/m2 ET
6/04/20 12:55p 81.3 72 71.4 5.0 S 10.0 81.3 29.802 0.00 629 0.000
6/04/20 12:50p 81.2 71 70.9 6.0 SSW 13.0 81.2 29.807 0.00 510 0.000
6/04/20 12:45p 81.4 71 71.1 6.0 S 16.0 81.4 29.808 0.00 381 0.000
6/04/20 12:40p 81.7 71 71.4 5.0 SSW 10.0 81.7 29.809 0.00 449 0.000
6/04/20 12:35p 81.9 71 71.6 5.0 SSW 15.0 81.9 29.810 0.00 473 0.000
6/04/20 12:30p 81.6 71 71.3 5.0 S 15.0 81.6 29.809 0.00 548 0.000
6/04/20 12:25p 81.0 73 71.5 5.0 SSW 12.0 81.0 29.811 0.00 446 0.000
6/04/20 12:20p 80.5 74 71.4 4.0 S 9.0 80.5 29.813 0.00 404 0.000
6/04/20 12:15p 80.3 74 71.3 5.0 S 13.0 80.3 29.814 0.00 364 0.000
6/04/20 12:10p 80.5 74 71.4 3.0 SSW 9.0 80.5 29.814 0.00 307 0.000
6/04/20 12:05p 80.5 74 71.4 3.0 SSW 6.0 80.5 29.814 0.00 320 0.000
6/04/20 12:00p 80.4 74 71.3 5.0 SSW 10.0 80.4 29.812 0.00 382 0.013
6/04/20 11:55a 80.2 73 70.8 4.0 S 10.0 80.2 29.812 0.00 450 0.000
6/04/20 11:50a 80.3 73 70.9 5.0 SSW 9.0 80.3 29.811 0.00 402 0.000
6/04/20 11:45a 80.5 74 71.4 3.0 S 10.0 80.5 29.811 0.00 388 0.000
6/04/20 11:40a 80.3 74 71.3 3.0 S 6.0 80.3 29.812 0.00 532 0.000
6/04/20 11:35a 80.1 74 71.1 4.0 SSW 9.0 80.1 29.811 0.00 369 0.000
6/04/20 11:30a 79.8 75 71.2 3.0 SSW 7.0 79.8 29.812 0.00 734 0.000
6/04/20 11:25a 79.4 75 70.8 3.0 SSW 7.0 79.4 29.810 0.00 659 0.000
6/04/20 11:20a 79.0 76 70.8 2.0 SE 7.0 79.0 29.811 0.00 590 0.000
6/04/20 11:15a 78.6 76 70.4 2.0 SSW 10.0 78.6 29.813 0.00 289 0.000
6/04/20 11:10a 78.7 76 70.5 3.0 S 8.0 78.7 29.814 0.00 308 0.000
6/04/20 11:05a 78.3 76 70.1 4.0 S 8.0 78.3 29.811 0.00 330 0.000
6/04/20 11:00a 78.0 76 69.8 4.0 S 7.0 78.0 29.810 0.00 160 0.005
6/04/20 10:55a 77.8 76 69.6 4.0 S 8.0 77.8 29.807 0.00 146 0.000
6/04/20 10:50a 77.8 77 70.0 4.0 SSW 12.0 77.8 29.802 0.00 138 0.000
6/04/20 10:45a 77.6 77 69.8 2.0 SSW 8.0 77.6 29.798 0.00 209 0.000
6/04/20 10:40a 77.3 77 69.5 4.0 S 14.0 77.3 29.798 0.00 177 0.000
6/04/20 10:35a 77.1 77 69.3 4.0 SSW 10.0 77.1 29.797 0.00 134 0.000
6/04/20 10:30a 76.7 77 68.9 4.0 SSE 9.0 76.7 29.798 0.00 146 0.000
6/04/20 10:25a 76.6 77 68.8 3.0 SSE 8.0 76.6 29.799 0.00 107 0.000
6/04/20 10:20a 76.2 78 68.8 4.0 SSW 11.0 76.2 29.798 0.00 102 0.000
6/04/20 10:15a 76.0 78 68.6 4.0 S 10.0 76.0 29.800 0.00 135 0.000
6/04/20 10:10a 75.8 78 68.4 4.0 S 11.0 75.8 29.799 0.00 95 0.000
6/04/20 10:05a 75.6 78 68.3 3.0 SSW 7.0 75.6 29.800 0.00 94 0.000
6/04/20 10:00a 75.2 78 67.9 4.0 S 9.0 75.2 29.799 0.00 218 0.005
6/04/20 9:55a 74.8 78 67.5 5.0 S 13.0 74.8 29.798 0.00 118 0.000
6/04/20 9:50a 74.6 79 67.7 5.0 SSW 13.0 74.6 29.801 0.00 122 0.000
6/04/20 9:45a 74.4 78 67.1 5.0 SSW 9.0 74.4 29.802 0.00 152 0.000
6/04/20 9:40a 74.2 79 67.3 4.0 SSW 8.0 74.2 29.800 0.00 231 0.000
6/04/20 9:35a 73.9 79 67.0 4.0 S 8.0 73.9 29.800 0.00 219 0.000
6/04/20 9:30a 73.9 79 67.0 5.0 S 14.0 73.9 29.801 0.00 149 0.000
6/04/20 9:25a 73.8 79 66.9 5.0 SSW 10.0 73.8 29.801 0.00 140 0.000
6/04/20 9:20a 73.8 79 66.9 4.0 S 9.0 73.8 29.798 0.00 162 0.000
6/04/20 9:15a 73.6 79 66.7 4.0 SSW 9.0 73.6 29.798 0.00 220 0.000
6/04/20 9:10a 73.4 79 66.5 4.0 S 9.0 73.4 29.796 0.00 268 0.000
6/04/20 9:05a 73.2 80 66.7 2.0 SSW 6.0 73.2 29.796 0.00 266 0.000
6/04/20 9:00a 72.9 80 66.4 4.0 S 10.0 72.9 29.799 0.00 249 0.004
6/04/20 8:55a 72.6 80 66.1 3.0 SSW 6.0 72.6 29.794 0.00 292 0.000
6/04/20 8:50a 72.1 81 65.9 2.0 S 8.0 72.1 29.797 0.00 250 0.000
6/04/20 8:45a 71.8 81 65.7 3.0 SSW 6.0 71.8 29.797 0.00 185 0.000
6/04/20 8:40a 71.6 81 65.5 3.0 SSW 7.0 71.6 29.797 0.00 133 0.000
6/04/20 8:35a 71.4 81 65.3 3.0 SSE 7.0 71.4 29.801 0.00 127 0.000
6/04/20 8:30a 71.3 82 65.5 3.0 SSW 7.0 71.3 29.804 0.00 118 0.000
6/04/20 8:25a 71.1 81 65.0 3.0 S 5.0 71.1 29.801 0.00 107 0.000
6/04/20 8:20a 71.0 81 64.9 3.0 SSW 8.0 71.0 29.802 0.00 92 0.000
6/04/20 8:15a 70.9 81 64.8 3.0 SSW 7.0 70.9 29.803 0.00 92 0.000
6/04/20 8:10a 70.8 82 65.0 3.0 SSW 6.0 70.8 29.804 0.00 90 0.000
6/04/20 8:05a 70.7 82 64.9 2.0 SSW 5.0 70.7 29.805 0.00 79 0.000
6/04/20 8:00a 70.7 82 64.9 2.0 SSW 6.0 70.7 29.805 0.00 69 0.002
6/04/20 7:55a 70.6 82 64.8 2.0 SSW 6.0 70.6 29.804 0.00 61 0.000
6/04/20 7:50a 70.6 82 64.8 3.0 SSW 6.0 70.6 29.802 0.00 60 0.000
6/04/20 7:45a 70.5 82 64.7 2.0 SSE 6.0 70.5 29.801 0.00 65 0.000
6/04/20 7:40a 70.3 81 64.2 2.0 SSE 5.0 70.3 29.801 0.00 73 0.000
6/04/20 7:35a 70.2 81 64.1 3.0 SSW 6.0 70.2 29.799 0.00 76 0.000
6/04/20 7:30a 70.1 81 64.0 2.0 SSW 5.0 70.1 29.799 0.00 50 0.000
6/04/20 7:25a 70.1 81 64.0 3.0 SSE 7.0 70.1 29.796 0.00 30 0.000
6/04/20 7:20a 70.1 81 64.0 3.0 S 6.0 70.1 29.795 0.00 24 0.000
6/04/20 7:15a 70.1 81 64.0 3.0 SSW 6.0 70.1 29.792 0.00 21 0.000
6/04/20 7:10a 70.1 81 64.0 3.0 S 8.0 70.1 29.788 0.00 21 0.000
6/04/20 7:05a 70.1 81 64.0 3.0 S 6.0 70.1 29.784 0.00 19 0.000
6/04/20 7:00a 70.1 81 64.0 3.0 S 5.0 70.1 29.785 0.00 19 0.001
6/04/20 6:55a 70.1 81 64.0 2.0 SSE 5.0 70.1 29.781 0.00 18 0.000
6/04/20 6:50a 70.1 81 64.0 4.0 SSW 7.0 70.1 29.781 0.00 15 0.000
6/04/20 6:45a 70.0 81 63.9 3.0 SSW 5.0 70.0 29.779 0.00 12 0.000
6/04/20 6:40a 69.9 81 63.8 2.0 SSW 5.0 69.9 29.780 0.00 9 0.000
6/04/20 6:35a 69.9 81 63.8 2.0 SSE 4.0 69.9 29.778 0.00 6 0.000
6/04/20 6:30a 69.9 81 63.8 2.0 SSE 4.0 69.9 29.778 0.00 1 0.000
6/04/20 6:25a 69.8 80 63.3 2.0 S 6.0 69.8 29.779 0.00 0 0.000
6/04/20 6:20a 69.8 80 63.3 2.0 SSW 7.0 69.8 29.779 0.00 0 0.000
6/04/20 6:15a 69.7 80 63.3 2.0 S 5.0 69.7 29.782 0.00 0 0.000
6/04/20 6:10a 69.7 80 63.3 2.0 S 5.0 69.7 29.782 0.00 0 0.000
6/04/20 6:05a 69.7 80 63.3 3.0 S 6.0 69.7 29.781 0.00 0 0.000
6/04/20 6:00a 69.7 80 63.3 3.0 SSW 6.0 69.7 29.782 0.00 0 0.001
6/04/20 5:55a 69.7 80 63.3 2.0 SSW 5.0 69.7 29.782 0.00 0 0.000
6/04/20 5:50a 69.6 80 63.2 2.0 S 5.0 69.6 29.783 0.00 0 0.000
6/04/20 5:45a 69.6 80 63.2 2.0 SSW 6.0 69.6 29.783 0.00 0 0.000
6/04/20 5:40a 69.7 80 63.3 2.0 SW 5.0 69.7 29.787 0.00 0 0.000
6/04/20 5:35a 69.7 80 63.3 1.0 SSW 4.0 69.7 29.787 0.00 0 0.000
6/04/20 5:30a 69.8 80 63.3 2.0 SSW 5.0 69.8 29.790 0.00 0 0.000
6/04/20 5:25a 69.8 80 63.3 2.0 SSW 5.0 69.8 29.792 0.00 0 0.000
6/04/20 5:20a 69.7 80 63.3 2.0 SSW 4.0 69.7 29.793 0.00 0 0.000
6/04/20 5:15a 69.7 80 63.3 2.0 SSW 4.0 69.7 29.797 0.00 0 0.000
6/04/20 5:10a 69.8 79 63.0 2.0 S 4.0 69.8 29.797 0.00 0 0.000
6/04/20 5:05a 69.9 79 63.1 2.0 S 4.0 69.9 29.795 0.00 0 0.000
6/04/20 5:00a 69.9 79 63.1 1.0 S 4.0 69.9 29.795 0.00 0 0.001
6/04/20 4:55a 70.0 79 63.2 1.0 S 3.0 70.0 29.797 0.00 0 0.000
6/04/20 4:50a 70.0 79 63.2 2.0 S 5.0 70.0 29.800 0.00 0 0.000
6/04/20 4:45a 70.0 79 63.2 2.0 SSW 5.0 70.0 29.802 0.00 0 0.000
6/04/20 4:40a 70.0 79 63.2 2.0 SSW 5.0 70.0 29.804 0.00 0 0.000
6/04/20 4:35a 70.0 79 63.2 2.0 SSW 4.0 70.0 29.805 0.00 0 0.000
6/04/20 4:30a 70.0 79 63.2 3.0 S 6.0 70.0 29.806 0.00 0 0.000
6/04/20 4:25a 70.0 79 63.2 2.0 SSW 5.0 70.0 29.804 0.00 0 0.000
6/04/20 4:20a 70.1 79 63.3 3.0 S 5.0 70.1 29.803 0.00 0 0.000
6/04/20 4:15a 70.1 78 62.9 2.0 S 5.0 70.1 29.797 0.00 0 0.000
6/04/20 4:10a 70.1 78 62.9 2.0 S 4.0 70.1 29.796 0.00 0 0.000
6/04/20 4:05a 70.2 78 63.0 3.0 SSW 5.0 70.2 29.792 0.00 0 0.000
6/04/20 4:00a 70.2 78 63.0 2.0 S 5.0 70.2 29.792 0.00 0 0.001
6/04/20 3:55a 70.3 78 63.1 2.0 SSW 4.0 70.3 29.785 0.00 0 0.000
6/04/20 3:50a 70.4 78 63.2 2.0 S 6.0 70.4 29.785 0.00 0 0.000
6/04/20 3:45a 70.5 78 63.3 3.0 SSW 7.0 70.5 29.783 0.00 0 0.000
6/04/20 3:40a 70.5 78 63.3 2.0 SSW 4.0 70.5 29.782 0.00 0 0.000
6/04/20 3:35a 70.6 78 63.4 2.0 S 6.0 70.6 29.779 0.00 0 0.000
6/04/20 3:30a 70.7 78 63.5 3.0 S 6.0 70.7 29.781 0.00 0 0.000
6/04/20 3:25a 70.8 77 63.2 2.0 SSW 5.0 70.8 29.782 0.00 0 0.000
6/04/20 3:20a 70.9 78 63.7 1.0 SSW 4.0 70.9 29.788 0.00 0 0.000
6/04/20 3:15a 71.0 77 63.4 1.0 S 3.0 71.0 29.790 0.00 0 0.000
6/04/20 3:10a 71.1 77 63.5 1.0 SSW 5.0 71.1 29.794 0.00 0 0.000
6/04/20 3:05a 71.1 77 63.5 2.0 SSW 4.0 71.1 29.795 0.00 0 0.000
6/04/20 3:00a 71.2 77 63.6 3.0 SSE 6.0 71.2 29.796 0.00 0 0.001
6/04/20 2:55a 71.3 77 63.7 2.0 SSW 4.0 71.3 29.799 0.00 0 0.000
6/04/20 2:50a 71.4 77 63.8 2.0 S 4.0 71.4 29.798 0.00 0 0.000
6/04/20 2:45a 71.5 77 63.9 1.0 S 3.0 71.5 29.797 0.00 0 0.000
6/04/20 2:40a 71.6 77 64.0 2.0 S 4.0 71.6 29.800 0.00 0 0.000
6/04/20 2:35a 71.7 77 64.1 1.0 S 2.0 71.7 29.799 0.00 0 0.000
6/04/20 2:30a 71.8 77 64.2 2.0 SSW 3.0 71.8 29.801 0.00 0 0.000
6/04/20 2:25a 71.9 77 64.3 1.0 SSW 3.0 71.9 29.799 0.00 0 0.000
6/04/20 2:20a 71.9 77 64.3 2.0 SSW 3.0 71.9 29.801 0.00 0 0.000
6/04/20 2:15a 72.1 77 64.5 1.0 SSW 2.0 72.1 29.800 0.00 0 0.000
6/04/20 2:10a 72.1 77 64.5 2.0 SSW 3.0 72.1 29.805 0.00 0 0.000
6/04/20 2:05a 72.2 76 64.2 2.0 SSW 3.0 72.2 29.804 0.00 0 0.000
6/04/20 2:00a 72.2 77 64.6 2.0 S 4.0 72.2 29.805 0.00 0 0.001
6/04/20 1:55a 72.2 77 64.6 2.0 SSW 4.0 72.2 29.802 0.00 0 0.000
6/04/20 1:50a 72.3 77 64.7 2.0 SSW 5.0 72.3 29.801 0.00 0 0.000
6/04/20 1:45a 72.3 77 64.7 2.0 SSW 3.0 72.3 29.802 0.00 0 0.000
6/04/20 1:40a 72.4 76 64.4 1.0 SSW 4.0 72.4 29.804 0.00 0 0.000
6/04/20 1:35a 72.4 76 64.4 1.0 SSW 3.0 72.4 29.804 0.00 0 0.000
6/04/20 1:30a 72.5 76 64.5 1.0 SSW 3.0 72.5 29.802 0.00 0 0.000
6/04/20 1:25a 72.6 76 64.6 2.0 SSW 4.0 72.6 29.804 0.00 0 0.000
6/04/20 1:20a 72.6 76 64.6 2.0 S 4.0 72.6 29.802 0.00 0 0.000
6/04/20 1:15a 72.8 76 64.8 2.0 SSW 3.0 72.8 29.802 0.00 0 0.000
6/04/20 1:10a 72.8 76 64.8 2.0 SSW 5.0 72.8 29.800 0.00 0 0.000
6/04/20 1:05a 72.9 76 64.9 2.0 S 6.0 72.9 29.799 0.00 0 0.000
6/04/20 1:00a 72.9 76 64.9 2.0 SSW 4.0 72.9 29.799 0.00 0 0.001
6/04/20 12:55a 72.9 76 64.9 2.0 S 5.0 72.9 29.802 0.00 0 0.000
6/04/20 12:50a 72.9 75 64.5 2.0 SSW 5.0 72.9 29.804 0.00 0 0.000
6/04/20 12:45a 73.1 75 64.7 1.0 SSE 4.0 73.1 29.805 0.00 0 0.000
6/04/20 12:40a 73.3 75 64.9 2.0 SSW 4.0 73.3 29.806 0.00 0 0.000
6/04/20 12:35a 73.4 75 65.0 2.0 SSW 4.0 73.4 29.809 0.00 0 0.000
6/04/20 12:30a 73.4 75 65.0 1.0 S 4.0 73.4 29.810 0.00 0 0.000
6/04/20 12:25a 73.5 75 65.1 1.0 S 3.0 73.5 29.811 0.00 0 0.000
6/04/20 12:20a 73.7 75 65.3 1.0 SSW 2.0 73.7 29.813 0.00 0 0.000
6/04/20 12:15a 73.9 75 65.5 0.0 SSW 1.0 73.9 29.812 0.00 0 0.000
6/04/20 12:10a 74.0 75 65.6 0.0 SSW 2.0 74.0 29.811 0.00 0 0.000
6/04/20 12:05a 74.1 75 65.7 1.0 SSW 3.0 74.1 29.813 0.00 0 0.000
6/04/20 12:00a 74.3 75 65.9 1.0 SSW 3.0 74.3 29.816 0.00 0 0.001

13,516 Page Views